createdAt,value
2022-12-05T00:01:16.487Z,3.50
2022-12-05T00:03:43.399Z,3.50
2022-12-05T00:06:10.336Z,3.40
2022-12-05T00:08:37.201Z,3.40
2022-12-05T00:11:04.178Z,3.50
2022-12-05T00:13:31.150Z,3.50
2022-12-05T00:15:57.940Z,3.40
2022-12-05T00:18:24.837Z,3.50
2022-12-05T00:20:51.629Z,3.50
2022-12-05T00:23:18.384Z,3.50
2022-12-05T00:25:45.162Z,3.60
2022-12-05T00:28:15.053Z,3.40
2022-12-05T00:30:41.865Z,3.50
2022-12-05T00:33:08.692Z,3.50
2022-12-05T00:35:35.521Z,3.50
2022-12-05T00:38:02.385Z,3.60
2022-12-05T00:40:29.152Z,3.60
2022-12-05T00:42:55.945Z,3.60
2022-12-05T00:45:22.742Z,3.50
2022-12-05T00:47:49.547Z,3.60
2022-12-05T00:50:16.344Z,3.60
2022-12-05T00:52:43.168Z,3.50
2022-12-05T00:55:10.310Z,3.60
2022-12-05T00:57:37.096Z,3.50
2022-12-05T01:00:06.130Z,3.50
2022-12-05T01:02:32.876Z,3.50
2022-12-05T01:04:59.653Z,3.40
2022-12-05T01:07:26.431Z,3.50
2022-12-05T01:09:53.243Z,3.60
2022-12-05T01:12:19.994Z,3.50
2022-12-05T01:14:46.804Z,3.50
2022-12-05T01:17:13.654Z,3.50
2022-12-05T01:19:40.516Z,3.70
2022-12-05T01:22:07.238Z,3.70
2022-12-05T01:24:34.020Z,3.60
2022-12-05T01:27:00.952Z,3.60
2022-12-05T01:29:27.817Z,3.60
2022-12-05T01:31:55.296Z,3.60
2022-12-05T01:34:22.791Z,3.60
2022-12-05T01:36:49.731Z,3.60
2022-12-05T01:39:16.935Z,3.50
2022-12-05T01:41:46.772Z,3.80
2022-12-05T01:44:13.520Z,3.70
2022-12-05T01:46:45.780Z,3.70
2022-12-05T01:49:16.262Z,3.70
2022-12-05T01:51:52.928Z,3.60
2022-12-05T01:54:22.570Z,3.70
2022-12-05T01:56:53.849Z,3.60
2022-12-05T01:59:22.802Z,3.70
2022-12-05T02:01:49.958Z,3.60
2022-12-05T02:04:17.517Z,3.60
2022-12-05T02:06:44.542Z,3.60
2022-12-05T02:09:11.460Z,3.60
2022-12-05T02:12:05.868Z,3.70
2022-12-05T02:15:05.758Z,3.60
2022-12-05T02:17:35.321Z,3.70
2022-12-05T02:20:43.354Z,3.60
2022-12-05T02:23:22.249Z,3.70
2022-12-05T02:26:28.348Z,3.70
2022-12-05T02:29:25.997Z,3.60
2022-12-05T02:32:10.332Z,3.60
2022-12-05T02:34:42.827Z,3.60
2022-12-05T02:37:11.806Z,3.70
2022-12-05T02:39:44.869Z,3.70
2022-12-05T02:42:47.020Z,3.70
2022-12-05T02:45:16.963Z,3.60
2022-12-05T02:47:48.437Z,3.60
2022-12-05T02:50:20.740Z,3.80
2022-12-05T02:52:50.494Z,3.70
2022-12-05T02:55:18.768Z,3.70
2022-12-05T02:57:50.541Z,3.60
2022-12-05T03:00:17.712Z,3.70
2022-12-05T03:02:44.959Z,3.60
2022-12-05T03:05:21.170Z,3.70
2022-12-05T03:07:51.863Z,3.80
2022-12-05T03:10:22.433Z,3.70
2022-12-05T03:12:56.676Z,3.70
2022-12-05T03:15:29.444Z,3.70
2022-12-05T03:17:59.757Z,3.60
2022-12-05T03:20:35.227Z,3.70
2022-12-05T03:23:25.116Z,3.80
2022-12-05T03:26:00.019Z,3.70
2022-12-05T03:28:52.709Z,3.70
2022-12-05T03:31:26.306Z,3.60
2022-12-05T03:33:58.544Z,3.70
2022-12-05T03:36:35.019Z,3.70
2022-12-05T03:39:11.571Z,3.70
2022-12-05T03:42:00.464Z,3.60
2022-12-05T03:44:41.874Z,3.60
2022-12-05T03:47:38.601Z,3.60
2022-12-05T03:50:24.192Z,3.70
2022-12-05T03:53:19.958Z,3.50
2022-12-05T03:55:52.910Z,3.70
2022-12-05T03:58:30.711Z,3.60
2022-12-05T04:01:01.217Z,3.70
2022-12-05T04:03:43.385Z,3.60
2022-12-05T04:06:28.595Z,3.60
2022-12-05T04:09:15.421Z,3.70
2022-12-05T04:11:51.289Z,3.70
2022-12-05T04:14:37.677Z,3.70
2022-12-05T04:17:26.712Z,3.60
2022-12-05T04:20:59.479Z,3.60
2022-12-05T04:23:27.228Z,3.80
2022-12-05T04:26:23.639Z,3.60
2022-12-05T04:28:57.854Z,3.50
2022-12-05T04:31:35.380Z,3.70
2022-12-05T04:34:06.710Z,3.70
2022-12-05T04:36:43.719Z,3.70
2022-12-05T04:39:28.257Z,3.70
2022-12-05T04:42:00.823Z,3.80
2022-12-05T04:44:34.025Z,3.70
2022-12-05T04:47:03.968Z,3.70
2022-12-05T04:49:33.219Z,3.70
2022-12-05T04:52:04.572Z,3.60
2022-12-05T04:54:45.006Z,3.70
2022-12-05T04:57:31.922Z,3.70
2022-12-05T04:59:58.957Z,3.60
2022-12-05T05:02:34.957Z,3.60
2022-12-05T05:05:03.655Z,3.60
2022-12-05T05:07:30.603Z,3.60
2022-12-05T05:09:57.836Z,3.70
2022-12-05T05:12:24.906Z,3.70
2022-12-05T05:14:51.665Z,3.60
2022-12-05T05:17:18.482Z,3.70
2022-12-05T05:19:45.314Z,3.70
2022-12-05T05:22:12.256Z,3.70
2022-12-05T05:24:39.001Z,3.70
2022-12-05T05:27:05.883Z,3.80
2022-12-05T05:29:32.646Z,3.70
2022-12-05T05:31:59.532Z,3.80
2022-12-05T05:34:28.623Z,3.70
2022-12-05T05:36:55.471Z,3.70
2022-12-05T05:39:22.875Z,3.70
2022-12-05T05:41:49.771Z,3.70
2022-12-05T05:44:16.653Z,3.80
2022-12-05T05:46:43.575Z,3.70
2022-12-05T05:49:10.577Z,3.70
2022-12-05T05:51:37.384Z,3.80
2022-12-05T05:54:04.346Z,3.70
2022-12-05T05:56:31.154Z,3.80
2022-12-05T05:59:00.782Z,3.80
2022-12-05T06:01:27.996Z,3.70
2022-12-05T06:03:54.963Z,3.70
2022-12-05T06:06:22.940Z,3.60
2022-12-05T06:08:50.161Z,3.60
2022-12-05T06:11:25.470Z,3.70
2022-12-05T06:13:58.084Z,3.70
2022-12-05T06:16:25.357Z,3.70
2022-12-05T06:18:53.241Z,3.70
2022-12-05T06:21:21.027Z,3.60
2022-12-05T06:23:48.387Z,3.70
2022-12-05T06:26:18.710Z,3.60
2022-12-05T06:28:45.841Z,3.60
2022-12-05T06:31:18.435Z,3.60
2022-12-05T06:33:45.748Z,3.70
2022-12-05T06:36:16.437Z,3.70
2022-12-05T06:38:43.701Z,3.80
2022-12-05T06:41:15.235Z,3.80
2022-12-05T06:43:42.669Z,3.70
2022-12-05T06:46:12.553Z,3.70
2022-12-05T06:48:39.635Z,3.60
2022-12-05T06:51:10.364Z,3.50
2022-12-05T06:53:37.429Z,3.60
2022-12-05T06:56:07.582Z,3.50
2022-12-05T06:58:34.627Z,3.60
2022-12-05T07:01:20.313Z,3.50
2022-12-05T07:03:49.644Z,3.50
2022-12-05T07:06:16.923Z,3.60
2022-12-05T07:08:44.908Z,3.50
2022-12-05T07:11:11.819Z,3.50
2022-12-05T07:13:38.708Z,3.60
2022-12-05T07:16:09.657Z,3.50
2022-12-05T07:18:36.603Z,3.50
2022-12-05T07:21:12.073Z,3.60
2022-12-05T07:23:40.518Z,3.50
2022-12-05T07:26:08.887Z,3.50
2022-12-05T07:28:36.047Z,3.60
2022-12-05T07:31:08.830Z,3.60
2022-12-05T07:33:36.340Z,3.60
2022-12-05T07:36:08.434Z,3.50
2022-12-05T07:38:35.724Z,3.50
2022-12-05T07:41:13.503Z,3.60
2022-12-05T07:43:41.839Z,3.60
2022-12-05T07:46:11.432Z,3.40
2022-12-05T07:48:39.535Z,3.60
2022-12-05T07:51:08.236Z,3.40
2022-12-05T07:53:35.716Z,3.40
2022-12-05T07:56:04.459Z,3.40
2022-12-05T07:58:32.489Z,3.50
2022-12-05T08:01:08.003Z,3.60
2022-12-05T08:03:37.457Z,3.50
2022-12-05T08:06:06.424Z,3.50
2022-12-05T08:08:33.665Z,3.60
2022-12-05T08:11:12.953Z,3.60
2022-12-05T08:13:40.604Z,3.50
2022-12-05T08:16:20.293Z,3.30
2022-12-05T08:18:47.385Z,3.30
2022-12-05T08:21:17.371Z,3.20
2022-12-05T08:23:45.379Z,3.10
2022-12-05T08:26:15.310Z,3.10
2022-12-05T08:28:43.060Z,2.90
2022-12-05T08:31:20.115Z,3.00
2022-12-05T08:33:46.945Z,2.80
2022-12-05T08:36:15.607Z,2.80
2022-12-05T08:38:43.403Z,2.90
2022-12-05T08:41:14.268Z,2.90
2022-12-05T08:43:41.285Z,2.80
2022-12-05T08:46:08.752Z,2.90
2022-12-05T08:48:36.311Z,2.90
2022-12-05T08:51:11.553Z,2.80
2022-12-05T08:53:44.054Z,2.70
2022-12-05T08:56:12.343Z,2.50
2022-12-05T08:58:40.165Z,2.50
2022-12-05T09:01:15.697Z,2.80
2022-12-05T09:03:47.575Z,2.90
2022-12-05T09:06:14.885Z,2.80
2022-12-05T09:08:42.835Z,2.70
2022-12-05T09:11:12.833Z,2.80
2022-12-05T09:13:40.045Z,2.90
2022-12-05T09:16:15.980Z,2.80
2022-12-05T09:18:43.743Z,2.70
2022-12-05T09:21:16.785Z,2.50
2022-12-05T09:23:44.580Z,2.40
2022-12-05T09:26:14.771Z,2.50
2022-12-05T09:28:42.641Z,2.80
2022-12-05T09:31:13.087Z,2.50
2022-12-05T09:33:40.793Z,2.40
2022-12-05T09:36:11.878Z,2.40
2022-12-05T09:38:38.922Z,2.50
2022-12-05T09:41:08.776Z,2.50
2022-12-05T09:43:48.097Z,2.50
2022-12-05T09:46:30.247Z,2.60
2022-12-05T09:49:00.167Z,2.50
2022-12-05T09:51:27.476Z,2.60
2022-12-05T09:53:54.950Z,2.60
2022-12-05T09:56:27.244Z,2.70
2022-12-05T09:58:56.414Z,2.80
2022-12-05T10:02:01.598Z,2.70
2022-12-05T10:04:43.392Z,2.70
2022-12-05T10:07:31.653Z,2.80
2022-12-05T10:10:20.250Z,2.70
2022-12-05T10:12:59.763Z,2.70
2022-12-05T10:15:45.541Z,2.70
2022-12-05T10:18:17.861Z,2.80
2022-12-05T10:21:05.916Z,3.00
2022-12-05T10:23:57.420Z,2.70
2022-12-05T10:26:38.049Z,2.70
2022-12-05T10:29:36.015Z,2.70
2022-12-05T10:32:20.027Z,2.80
2022-12-05T10:34:47.479Z,2.90
2022-12-05T10:37:19.627Z,2.90
2022-12-05T10:39:47.770Z,2.90
2022-12-05T10:42:30.172Z,3.00
2022-12-05T10:45:03.942Z,3.20
2022-12-05T10:47:32.263Z,3.10
2022-12-05T10:50:05.076Z,3.20
2022-12-05T10:52:32.641Z,3.30
2022-12-05T10:55:04.629Z,3.20
2022-12-05T10:57:31.442Z,2.90
2022-12-05T11:00:09.078Z,2.80
2022-12-05T11:02:38.160Z,2.80
2022-12-05T11:05:05.330Z,2.70
2022-12-05T11:07:33.932Z,2.70
2022-12-05T11:10:04.312Z,2.90
2022-12-05T11:12:34.224Z,3.10
2022-12-05T11:15:03.093Z,3.00
2022-12-05T11:17:35.627Z,3.20
2022-12-05T11:20:23.292Z,3.10
2022-12-05T11:22:51.156Z,3.20
2022-12-05T11:25:32.651Z,3.30
2022-12-05T11:28:20.767Z,3.20
2022-12-05T11:31:25.870Z,3.20
2022-12-05T11:34:09.488Z,2.80
2022-12-05T11:36:48.392Z,2.80
2022-12-05T11:39:15.307Z,2.90
2022-12-05T11:41:47.947Z,2.80
2022-12-05T11:44:26.493Z,2.80
2022-12-05T11:47:17.773Z,2.80
2022-12-05T11:50:16.771Z,2.80
2022-12-05T11:53:17.186Z,2.70
2022-12-05T11:56:15.539Z,2.60
2022-12-05T11:58:45.388Z,2.60
2022-12-05T12:01:23.509Z,2.60
2022-12-05T12:04:35.037Z,2.80
2022-12-05T12:07:04.633Z,2.70
2022-12-05T12:10:09.609Z,2.80
2022-12-05T12:12:43.102Z,2.70
2022-12-05T12:15:12.869Z,3.00
2022-12-05T12:18:13.927Z,3.10
2022-12-05T12:21:02.270Z,3.00
2022-12-05T12:23:58.448Z,3.00
2022-12-05T12:26:44.803Z,2.90
2022-12-05T12:29:39.065Z,2.90
2022-12-05T12:32:24.481Z,3.00
2022-12-05T12:35:28.242Z,2.90
2022-12-05T12:38:07.044Z,2.90
2022-12-05T12:40:56.407Z,2.80
2022-12-05T12:43:52.689Z,3.00
2022-12-05T12:46:43.734Z,2.90
2022-12-05T12:49:25.427Z,3.10
2022-12-05T12:52:08.661Z,3.10
2022-12-05T12:55:13.877Z,3.10
2022-12-05T12:57:46.693Z,2.70
2022-12-05T13:00:28.672Z,2.90
2022-12-05T13:03:13.251Z,2.90
2022-12-05T13:05:47.999Z,2.70
2022-12-05T13:08:21.153Z,2.80
2022-12-05T13:10:49.367Z,2.80
2022-12-05T13:13:38.623Z,2.90
2022-12-05T13:16:07.950Z,3.00
2022-12-05T13:18:35.941Z,3.00
2022-12-05T13:21:09.180Z,3.00
2022-12-05T13:23:46.855Z,2.90
2022-12-05T13:26:14.896Z,3.00
2022-12-05T13:28:50.084Z,2.90
2022-12-05T13:31:19.419Z,2.80
2022-12-05T13:33:49.785Z,2.90
2022-12-05T13:36:42.984Z,2.70
2022-12-05T13:39:39.327Z,2.70
2022-12-05T13:42:24.440Z,2.60
2022-12-05T13:44:58.868Z,2.80
2022-12-05T13:47:43.081Z,2.70
2022-12-05T13:50:16.514Z,2.70
2022-12-05T13:52:54.934Z,2.60
2022-12-05T13:55:36.864Z,2.60
2022-12-05T13:58:24.041Z,2.50
2022-12-05T14:00:52.255Z,2.50
2022-12-05T14:03:34.387Z,2.50
2022-12-05T14:06:01.789Z,2.50
2022-12-05T14:08:31.647Z,2.40
2022-12-05T14:10:58.517Z,2.20
2022-12-05T14:13:26.978Z,2.20
2022-12-05T14:15:55.259Z,2.20
2022-12-05T14:18:30.721Z,2.10
2022-12-05T14:21:38.983Z,2.20
2022-12-05T14:24:42.939Z,2.20
2022-12-05T14:27:27.146Z,2.10
2022-12-05T14:30:17.000Z,2.00
2022-12-05T14:32:44.268Z,2.10
2022-12-05T14:35:24.749Z,2.10
2022-12-05T14:38:06.768Z,2.20
2022-12-05T14:40:40.055Z,2.10
2022-12-05T14:43:20.673Z,2.00
2022-12-05T14:45:57.343Z,2.20
2022-12-05T14:48:33.148Z,2.20
2022-12-05T14:51:01.325Z,2.10
2022-12-05T14:53:50.548Z,1.90
2022-12-05T14:56:27.672Z,2.00
2022-12-05T14:58:59.984Z,2.00
2022-12-05T15:01:35.115Z,2.10
2022-12-05T15:04:17.748Z,2.00
2022-12-05T15:09:49.549Z,1.70
2022-12-05T15:12:32.120Z,2.00
2022-12-05T15:15:13.966Z,2.30
2022-12-05T15:17:46.930Z,1.90
2022-12-05T15:20:22.360Z,2.20
2022-12-05T15:22:49.574Z,1.70
2022-12-05T15:25:27.902Z,2.30
2022-12-05T15:27:57.937Z,2.00
2022-12-05T15:30:25.071Z,2.20
2022-12-05T15:32:57.723Z,1.90
2022-12-05T15:35:28.876Z,2.30
2022-12-05T15:38:31.137Z,2.40
2022-12-05T15:40:58.074Z,2.30
2022-12-05T15:43:33.733Z,2.20
2022-12-05T15:46:25.455Z,2.10
2022-12-05T15:48:57.234Z,2.20
2022-12-05T15:51:31.956Z,1.90
2022-12-05T15:54:14.278Z,2.30
2022-12-05T15:56:50.549Z,2.00
2022-12-05T15:59:19.628Z,2.40
2022-12-05T16:01:52.636Z,1.90
2022-12-05T16:04:38.816Z,1.90
2022-12-05T16:07:11.597Z,2.20
2022-12-05T16:09:42.351Z,1.90
2022-12-05T16:12:24.707Z,2.00
2022-12-05T16:15:00.382Z,2.00
2022-12-05T16:17:30.706Z,2.30
2022-12-05T16:20:15.997Z,2.00
2022-12-05T16:22:49.055Z,2.20
2022-12-05T16:25:18.856Z,2.20
2022-12-05T16:28:08.251Z,2.30
2022-12-05T16:30:36.240Z,2.20
2022-12-05T16:33:16.679Z,2.20
2022-12-05T16:35:48.815Z,2.30
2022-12-05T16:38:19.751Z,1.90
2022-12-05T16:40:49.386Z,2.00
2022-12-05T16:43:18.380Z,2.20
2022-12-05T16:45:46.970Z,2.20
2022-12-05T16:48:27.906Z,2.10
2022-12-05T16:51:13.270Z,2.00
2022-12-05T16:53:42.435Z,2.30
2022-12-05T16:56:15.895Z,2.30
2022-12-05T16:58:43.106Z,2.30
2022-12-05T17:01:19.349Z,2.10
2022-12-05T17:03:46.553Z,2.40
2022-12-05T17:06:14.850Z,2.30
2022-12-05T17:08:42.383Z,2.00
2022-12-05T17:11:20.136Z,2.00
2022-12-05T17:13:48.595Z,1.80
2022-12-05T17:16:17.400Z,1.90
2022-12-05T17:18:45.402Z,2.20
2022-12-05T17:21:21.039Z,2.20
2022-12-05T17:23:48.601Z,2.00
2022-12-05T17:26:18.857Z,2.10
2022-12-05T17:28:46.075Z,2.30
2022-12-05T17:31:21.193Z,2.40
2022-12-05T17:33:49.654Z,2.30
2022-12-05T17:36:16.935Z,2.00
2022-12-05T17:38:44.621Z,1.90
2022-12-05T17:41:23.042Z,2.00
2022-12-05T17:43:51.613Z,2.20
2022-12-05T17:46:21.252Z,2.00
2022-12-05T17:48:49.767Z,2.10
2022-12-05T17:51:17.300Z,2.10
2022-12-05T17:53:44.702Z,2.20
2022-12-05T17:56:12.620Z,1.90
2022-12-05T17:58:40.274Z,2.30
2022-12-05T18:01:07.407Z,1.80
2022-12-05T18:03:34.353Z,1.90
2022-12-05T18:06:03.782Z,2.20
2022-12-05T18:08:30.595Z,1.90
2022-12-05T18:10:58.308Z,1.90
2022-12-05T18:13:25.208Z,2.00
2022-12-05T18:15:56.936Z,2.00
2022-12-05T18:18:24.208Z,2.20
2022-12-05T18:20:51.128Z,2.00
2022-12-05T18:23:18.279Z,2.40
2022-12-05T18:25:47.010Z,2.30
2022-12-05T18:28:17.915Z,2.40
2022-12-05T18:30:46.648Z,1.90
2022-12-05T18:33:13.595Z,2.00
2022-12-05T18:35:43.315Z,1.80
2022-12-05T18:38:11.828Z,1.80
2022-12-05T18:40:38.872Z,1.90
2022-12-05T18:43:05.676Z,2.10
2022-12-05T18:45:32.655Z,2.20
2022-12-05T18:48:09.696Z,1.90
2022-12-05T18:50:46.815Z,2.40
2022-12-05T18:53:13.720Z,2.40
2022-12-05T18:58:28.267Z,2.40
2022-12-05T19:00:55.914Z,2.10
2022-12-05T19:03:22.796Z,2.30
2022-12-05T19:05:49.636Z,2.10
2022-12-05T19:08:16.515Z,2.10
2022-12-05T19:10:43.365Z,2.40
2022-12-05T19:13:11.001Z,2.10
2022-12-05T19:15:37.858Z,2.30
2022-12-05T19:18:04.887Z,2.50
2022-12-05T19:20:31.715Z,2.30
2022-12-05T19:23:01.049Z,2.50
2022-12-05T19:25:29.983Z,2.50
2022-12-05T19:27:56.811Z,2.50
2022-12-05T19:30:24.452Z,2.40
2022-12-05T19:32:51.258Z,2.50
2022-12-05T19:35:18.264Z,2.50
2022-12-05T19:37:45.127Z,2.50
2022-12-05T19:40:12.365Z,2.40
2022-12-05T19:42:39.194Z,2.50
2022-12-05T19:45:13.479Z,2.20
2022-12-05T19:47:43.286Z,2.50
2022-12-05T19:50:10.327Z,2.20
2022-12-05T19:52:37.260Z,2.20
2022-12-05T19:55:04.159Z,2.60
2022-12-05T19:57:31.546Z,2.50
2022-12-05T19:59:58.992Z,2.50
2022-12-05T20:02:28.523Z,2.50
2022-12-05T20:04:55.348Z,2.40
2022-12-05T20:07:22.397Z,2.00
2022-12-05T20:09:49.231Z,2.30
2022-12-05T20:12:16.080Z,2.10
2022-12-05T20:14:42.954Z,2.00
2022-12-05T20:17:10.077Z,2.30
2022-12-05T20:19:37.308Z,2.20
2022-12-05T20:22:04.217Z,2.30
2022-12-05T20:24:31.340Z,2.10
2022-12-05T20:26:58.176Z,2.20
2022-12-05T20:29:25.217Z,2.10
2022-12-05T20:31:56.602Z,2.30
2022-12-05T20:34:23.623Z,2.30
2022-12-05T20:36:50.552Z,2.20
2022-12-05T20:39:18.730Z,2.30
2022-12-05T20:41:46.132Z,2.40
2022-12-05T20:44:15.837Z,1.80
2022-12-05T20:46:42.989Z,2.10
2022-12-05T20:49:11.976Z,2.30
2022-12-05T20:51:42.373Z,2.10
2022-12-05T20:54:09.821Z,2.30
2022-12-05T20:56:37.043Z,2.30
2022-12-05T20:59:06.098Z,2.40
2022-12-05T21:01:36.031Z,2.20
2022-12-05T21:04:05.937Z,2.40
2022-12-05T21:06:35.377Z,2.30
2022-12-05T21:09:04.692Z,2.30
2022-12-05T21:11:31.772Z,2.00
2022-12-05T21:14:00.488Z,2.30
2022-12-05T21:16:28.287Z,2.30
2022-12-05T21:18:56.289Z,2.20
2022-12-05T21:21:25.029Z,2.20
2022-12-05T21:23:57.779Z,2.30
2022-12-05T21:26:26.590Z,2.30
2022-12-05T21:28:54.060Z,2.30
2022-12-05T21:31:29.317Z,2.10
2022-12-05T21:33:58.799Z,2.30
2022-12-05T21:36:27.768Z,2.20
2022-12-05T21:38:56.449Z,2.30
2022-12-05T21:41:25.029Z,2.20
2022-12-05T21:43:54.882Z,2.10
2022-12-05T21:46:26.288Z,2.20
2022-12-05T21:48:53.854Z,2.10
2022-12-05T21:51:21.687Z,2.30
2022-12-05T21:53:48.860Z,2.10
2022-12-05T21:56:18.395Z,2.30
2022-12-05T21:58:46.606Z,2.10
2022-12-05T22:01:18.509Z,2.20
2022-12-05T22:03:46.352Z,2.40
2022-12-05T22:06:16.941Z,2.50
2022-12-05T22:08:43.782Z,2.20
2022-12-05T22:11:14.170Z,2.50
2022-12-05T22:13:42.075Z,2.50
2022-12-05T22:16:09.320Z,2.60
2022-12-05T22:18:36.805Z,2.30
2022-12-05T22:21:10.280Z,2.50
2022-12-05T22:23:37.425Z,2.40
2022-12-05T22:26:13.955Z,2.40
2022-12-05T22:28:40.985Z,2.40
2022-12-05T22:31:10.383Z,2.70
2022-12-05T22:33:37.931Z,2.40
2022-12-05T22:36:07.804Z,2.60
2022-12-05T22:38:36.916Z,2.60
2022-12-05T22:41:18.263Z,2.40
2022-12-05T22:43:47.212Z,2.60
2022-12-05T22:46:18.011Z,2.60
2022-12-05T22:48:45.627Z,2.60
2022-12-05T22:51:12.767Z,2.50
2022-12-05T22:53:40.443Z,2.60
2022-12-05T22:56:12.455Z,2.50
2022-12-05T22:58:40.077Z,2.50
2022-12-05T23:01:18.212Z,2.60
2022-12-05T23:03:46.867Z,2.40
2022-12-05T23:06:15.589Z,2.40
2022-12-05T23:08:43.834Z,2.30
2022-12-05T23:11:11.811Z,2.30
2022-12-05T23:13:39.740Z,2.40
2022-12-05T23:16:15.027Z,2.50
2022-12-05T23:18:48.436Z,2.40
2022-12-05T23:21:24.202Z,2.60
2022-12-05T23:23:53.584Z,2.50
2022-12-05T23:26:23.436Z,2.60
2022-12-05T23:28:50.674Z,2.30
2022-12-05T23:31:18.430Z,2.40
2022-12-05T23:33:48.548Z,2.50
2022-12-05T23:36:18.647Z,2.20
2022-12-05T23:38:45.555Z,2.50
2022-12-05T23:41:21.466Z,2.40
2022-12-05T23:43:50.336Z,2.50
2022-12-05T23:46:20.106Z,2.60
2022-12-05T23:48:47.503Z,2.50
2022-12-05T23:51:26.260Z,2.70
2022-12-05T23:53:58.907Z,2.60
2022-12-05T23:56:31.724Z,2.70
2022-12-05T23:58:59.211Z,2.60
